<?xml version="1.0" encoding="UTF-8" standalone="no" ?>
<gpx xmlns="http://www.topografix.com/GPX/1/1" xmlns:xsi="http://www.w3.org/2001/XMLSchema-instance" xsi:schemaLocation="http://www.topografix.com/GPX/1/1 http://www.topografix.com/GPX/1/1/gpx.xsd" version="1.1" creator="VisuGPX - https://www.visugpx.com">
  <metadata>
    <name>Cirque de Baume-les-Messieurs</name>
  </metadata>
  <wpt lat="46.70766" lon="5.64807">
    <ele>311</ele>
    <name><![CDATA[Parking de l'Abbaye de Baume]]></name>
  </wpt>
  <wpt lat="46.70591" lon="5.64652">
    <ele>312</ele>
    <name><![CDATA[Départ sentier des Echelles de Sermu]]></name>
  </wpt>
  <wpt lat="46.70775" lon="5.64316">
    <ele>475</ele>
    <name><![CDATA[Belvédère des Echelles de Sermu]]></name>
  </wpt>
  <wpt lat="46.69729" lon="5.6378">
    <ele>505</ele>
    <name><![CDATA[Sermu, D70E2]]></name>
  </wpt>
  <wpt lat="46.69023" lon="5.63943">
    <ele>396</ele>
    <name><![CDATA[Cascades des Tufs]]></name>
  </wpt>
  <wpt lat="46.68828" lon="5.64227">
    <ele>505</ele>
    <name><![CDATA[Quitter la route, prendre GR59 à gauche]]></name>
  </wpt>
  <wpt lat="46.70687" lon="5.6589">
    <ele>493</ele>
    <name><![CDATA[D70, à gauche]]></name>
  </wpt>
  <wpt lat="46.70838" lon="5.64961">
    <ele>349</ele>
    <name><![CDATA[Abbaye de Baume]]></name>
  </wpt>
  <wpt lat="46.70766" lon="5.64806">
    <ele>311</ele>
    <name><![CDATA[Parking de l'Abbaye de Baume]]></name>
  </wpt>
  <trk>
    <name><![CDATA[Cirque de Baume-les-Messieurs]]></name>
    <trkseg>
      <trkpt lat="46.70766" lon="5.64807">
        <ele>311</ele>
        <time>2021-05-10T09:54:12+02:00</time>
      </trkpt>
      <trkpt lat="46.70701" lon="5.64798">
        <ele>308</ele>
        <time>2021-05-10T09:54:17+02:00</time>
      </trkpt>
      <trkpt lat="46.70655" lon="5.64785">
        <ele>307</ele>
        <time>2021-05-10T09:54:22+02:00</time>
      </trkpt>
      <trkpt lat="46.70652" lon="5.64766">
        <ele>306</ele>
        <time>2021-05-10T09:54:27+02:00</time>
      </trkpt>
      <trkpt lat="46.7063" lon="5.64733">
        <ele>307</ele>
        <time>2021-05-10T09:54:32+02:00</time>
      </trkpt>
      <trkpt lat="46.70638" lon="5.64714">
        <ele>306</ele>
        <time>2021-05-10T09:54:37+02:00</time>
      </trkpt>
      <trkpt lat="46.70639" lon="5.64679">
        <ele>307</ele>
        <time>2021-05-10T09:54:42+02:00</time>
      </trkpt>
      <trkpt lat="46.70654" lon="5.64661">
        <ele>308</ele>
        <time>2021-05-10T09:54:47+02:00</time>
      </trkpt>
      <trkpt lat="46.70622" lon="5.64651">
        <ele>311</ele>
        <time>2021-05-10T09:54:52+02:00</time>
      </trkpt>
      <trkpt lat="46.70591" lon="5.64652">
        <ele>312</ele>
        <time>2021-05-10T09:54:57+02:00</time>
      </trkpt>
      <trkpt lat="46.70591" lon="5.6463">
        <ele>316</ele>
        <time>2021-05-10T09:55:02+02:00</time>
      </trkpt>
      <trkpt lat="46.70589" lon="5.64613">
        <ele>319</ele>
        <time>2021-05-10T09:55:07+02:00</time>
      </trkpt>
      <trkpt lat="46.70614" lon="5.64603">
        <ele>321</ele>
        <time>2021-05-10T09:55:12+02:00</time>
      </trkpt>
      <trkpt lat="46.7064" lon="5.64596">
        <ele>323</ele>
        <time>2021-05-10T09:55:17+02:00</time>
      </trkpt>
      <trkpt lat="46.7067" lon="5.64599">
        <ele>322</ele>
        <time>2021-05-10T09:55:22+02:00</time>
      </trkpt>
      <trkpt lat="46.70686" lon="5.64589">
        <ele>325</ele>
        <time>2021-05-10T09:55:27+02:00</time>
      </trkpt>
      <trkpt lat="46.70687" lon="5.64574">
        <ele>328</ele>
        <time>2021-05-10T09:55:32+02:00</time>
      </trkpt>
      <trkpt lat="46.70674" lon="5.64569">
        <ele>329</ele>
        <time>2021-05-10T09:55:37+02:00</time>
      </trkpt>
      <trkpt lat="46.70645" lon="5.64535">
        <ele>336</ele>
        <time>2021-05-10T09:55:42+02:00</time>
      </trkpt>
      <trkpt lat="46.70641" lon="5.64512">
        <ele>341</ele>
        <time>2021-05-10T09:55:47+02:00</time>
      </trkpt>
      <trkpt lat="46.70642" lon="5.64486">
        <ele>349</ele>
        <time>2021-05-10T09:55:52+02:00</time>
      </trkpt>
      <trkpt lat="46.70631" lon="5.6447">
        <ele>354</ele>
        <time>2021-05-10T09:55:57+02:00</time>
      </trkpt>
      <trkpt lat="46.70611" lon="5.6447">
        <ele>352</ele>
        <time>2021-05-10T09:56:02+02:00</time>
      </trkpt>
      <trkpt lat="46.7061" lon="5.64455">
        <ele>357</ele>
        <time>2021-05-10T09:56:07+02:00</time>
      </trkpt>
      <trkpt lat="46.70618" lon="5.64441">
        <ele>363</ele>
        <time>2021-05-10T09:56:12+02:00</time>
      </trkpt>
      <trkpt lat="46.70636" lon="5.64435">
        <ele>369</ele>
        <time>2021-05-10T09:56:17+02:00</time>
      </trkpt>
      <trkpt lat="46.70664" lon="5.6441">
        <ele>388</ele>
        <time>2021-05-10T09:56:22+02:00</time>
      </trkpt>
      <trkpt lat="46.70729" lon="5.64397">
        <ele>411</ele>
        <time>2021-05-10T09:56:27+02:00</time>
      </trkpt>
      <trkpt lat="46.70727" lon="5.64375">
        <ele>431</ele>
        <time>2021-05-10T09:56:32+02:00</time>
      </trkpt>
      <trkpt lat="46.70672" lon="5.64363">
        <ele>437</ele>
        <time>2021-05-10T09:56:37+02:00</time>
      </trkpt>
      <trkpt lat="46.70775" lon="5.64316">
        <ele>475</ele>
        <time>2021-05-10T09:56:42+02:00</time>
      </trkpt>
      <trkpt lat="46.70764" lon="5.64306">
        <ele>477</ele>
        <time>2021-05-10T09:56:47+02:00</time>
      </trkpt>
      <trkpt lat="46.70665" lon="5.64328">
        <ele>468</ele>
        <time>2021-05-10T09:56:52+02:00</time>
      </trkpt>
      <trkpt lat="46.70577" lon="5.6431">
        <ele>466</ele>
        <time>2021-05-10T09:56:57+02:00</time>
      </trkpt>
      <trkpt lat="46.70499" lon="5.64261">
        <ele>491</ele>
        <time>2021-05-10T09:57:02+02:00</time>
      </trkpt>
      <trkpt lat="46.704" lon="5.64234">
        <ele>487</ele>
        <time>2021-05-10T09:57:07+02:00</time>
      </trkpt>
      <trkpt lat="46.70351" lon="5.64217">
        <ele>482</ele>
        <time>2021-05-10T09:57:12+02:00</time>
      </trkpt>
      <trkpt lat="46.70325" lon="5.6423">
        <ele>468</ele>
        <time>2021-05-10T09:57:17+02:00</time>
      </trkpt>
      <trkpt lat="46.70278" lon="5.64202">
        <ele>459</ele>
        <time>2021-05-10T09:57:22+02:00</time>
      </trkpt>
      <trkpt lat="46.7022" lon="5.6412">
        <ele>479</ele>
        <time>2021-05-10T09:57:27+02:00</time>
      </trkpt>
      <trkpt lat="46.70149" lon="5.64102">
        <ele>461</ele>
        <time>2021-05-10T09:57:32+02:00</time>
      </trkpt>
      <trkpt lat="46.7" lon="5.63972">
        <ele>485</ele>
        <time>2021-05-10T09:57:37+02:00</time>
      </trkpt>
      <trkpt lat="46.6995" lon="5.63921">
        <ele>502</ele>
        <time>2021-05-10T09:57:42+02:00</time>
      </trkpt>
      <trkpt lat="46.69926" lon="5.63831">
        <ele>503</ele>
        <time>2021-05-10T09:57:47+02:00</time>
      </trkpt>
      <trkpt lat="46.69904" lon="5.63796">
        <ele>504</ele>
        <time>2021-05-10T09:57:52+02:00</time>
      </trkpt>
      <trkpt lat="46.69729" lon="5.6378">
        <ele>505</ele>
        <time>2021-05-10T09:57:57+02:00</time>
      </trkpt>
      <trkpt lat="46.69704" lon="5.63719">
        <ele>506</ele>
        <time>2021-05-10T09:58:02+02:00</time>
      </trkpt>
      <trkpt lat="46.69484" lon="5.63505">
        <ele>507</ele>
        <time>2021-05-10T09:58:07+02:00</time>
      </trkpt>
      <trkpt lat="46.69402" lon="5.63477">
        <ele>508</ele>
        <time>2021-05-10T09:58:12+02:00</time>
      </trkpt>
      <trkpt lat="46.69321" lon="5.63432">
        <ele>511</ele>
        <time>2021-05-10T09:58:17+02:00</time>
      </trkpt>
      <trkpt lat="46.69256" lon="5.63432">
        <ele>517</ele>
        <time>2021-05-10T09:58:22+02:00</time>
      </trkpt>
      <trkpt lat="46.69208" lon="5.63484">
        <ele>520</ele>
        <time>2021-05-10T09:58:27+02:00</time>
      </trkpt>
      <trkpt lat="46.69055" lon="5.6352">
        <ele>519</ele>
        <time>2021-05-10T09:58:32+02:00</time>
      </trkpt>
      <trkpt lat="46.68992" lon="5.63644">
        <ele>511</ele>
        <time>2021-05-10T09:58:37+02:00</time>
      </trkpt>
      <trkpt lat="46.68907" lon="5.637">
        <ele>496</ele>
        <time>2021-05-10T09:58:42+02:00</time>
      </trkpt>
      <trkpt lat="46.68828" lon="5.63736">
        <ele>505</ele>
        <time>2021-05-10T09:58:47+02:00</time>
      </trkpt>
      <trkpt lat="46.68808" lon="5.63775">
        <ele>502</ele>
        <time>2021-05-10T09:58:52+02:00</time>
      </trkpt>
      <trkpt lat="46.68808" lon="5.6383">
        <ele>497</ele>
        <time>2021-05-10T09:58:57+02:00</time>
      </trkpt>
      <trkpt lat="46.68787" lon="5.63978">
        <ele>499</ele>
        <time>2021-05-10T09:59:02+02:00</time>
      </trkpt>
      <trkpt lat="46.68829" lon="5.63979">
        <ele>496</ele>
        <time>2021-05-10T09:59:07+02:00</time>
      </trkpt>
      <trkpt lat="46.68859" lon="5.64051">
        <ele>499</ele>
        <time>2021-05-10T09:59:12+02:00</time>
      </trkpt>
      <trkpt lat="46.68865" lon="5.64052">
        <ele>499</ele>
        <time>2021-05-10T09:59:17+02:00</time>
      </trkpt>
      <trkpt lat="46.68869" lon="5.64032">
        <ele>492</ele>
        <time>2021-05-10T09:59:22+02:00</time>
      </trkpt>
      <trkpt lat="46.68877" lon="5.64035">
        <ele>491</ele>
        <time>2021-05-10T09:59:27+02:00</time>
      </trkpt>
      <trkpt lat="46.68888" lon="5.64047">
        <ele>494</ele>
        <time>2021-05-10T09:59:32+02:00</time>
      </trkpt>
      <trkpt lat="46.68892" lon="5.64044">
        <ele>492</ele>
        <time>2021-05-10T09:59:37+02:00</time>
      </trkpt>
      <trkpt lat="46.689" lon="5.64019">
        <ele>478</ele>
        <time>2021-05-10T09:59:42+02:00</time>
      </trkpt>
      <trkpt lat="46.68893" lon="5.64007">
        <ele>475</ele>
        <time>2021-05-10T09:59:47+02:00</time>
      </trkpt>
      <trkpt lat="46.68866" lon="5.63961">
        <ele>472</ele>
        <time>2021-05-10T09:59:52+02:00</time>
      </trkpt>
      <trkpt lat="46.68857" lon="5.63912">
        <ele>469</ele>
        <time>2021-05-10T09:59:57+02:00</time>
      </trkpt>
      <trkpt lat="46.68859" lon="5.63851">
        <ele>468</ele>
        <time>2021-05-10T10:00:02+02:00</time>
      </trkpt>
      <trkpt lat="46.68865" lon="5.63811">
        <ele>472</ele>
        <time>2021-05-10T10:00:07+02:00</time>
      </trkpt>
      <trkpt lat="46.68883" lon="5.63779">
        <ele>474</ele>
        <time>2021-05-10T10:00:12+02:00</time>
      </trkpt>
      <trkpt lat="46.68938" lon="5.63748">
        <ele>476</ele>
        <time>2021-05-10T10:00:17+02:00</time>
      </trkpt>
      <trkpt lat="46.68961" lon="5.63733">
        <ele>480</ele>
        <time>2021-05-10T10:00:22+02:00</time>
      </trkpt>
      <trkpt lat="46.68961" lon="5.63747">
        <ele>474</ele>
        <time>2021-05-10T10:00:27+02:00</time>
      </trkpt>
      <trkpt lat="46.6898" lon="5.63763">
        <ele>462</ele>
        <time>2021-05-10T10:00:32+02:00</time>
      </trkpt>
      <trkpt lat="46.69" lon="5.63801">
        <ele>431</ele>
        <time>2021-05-10T10:00:37+02:00</time>
      </trkpt>
      <trkpt lat="46.69012" lon="5.63836">
        <ele>404</ele>
        <time>2021-05-10T10:00:42+02:00</time>
      </trkpt>
      <trkpt lat="46.69047" lon="5.63857">
        <ele>393</ele>
        <time>2021-05-10T10:00:47+02:00</time>
      </trkpt>
      <trkpt lat="46.69063" lon="5.63862">
        <ele>390</ele>
        <time>2021-05-10T10:00:52+02:00</time>
      </trkpt>
      <trkpt lat="46.69084" lon="5.63861">
        <ele>386</ele>
        <time>2021-05-10T10:00:57+02:00</time>
      </trkpt>
      <trkpt lat="46.69086" lon="5.63878">
        <ele>383</ele>
        <time>2021-05-10T10:01:02+02:00</time>
      </trkpt>
      <trkpt lat="46.6908" lon="5.63897">
        <ele>381</ele>
        <time>2021-05-10T10:01:07+02:00</time>
      </trkpt>
      <trkpt lat="46.69097" lon="5.63935">
        <ele>378</ele>
        <time>2021-05-10T10:01:12+02:00</time>
      </trkpt>
      <trkpt lat="46.69092" lon="5.63972">
        <ele>384</ele>
        <time>2021-05-10T10:01:17+02:00</time>
      </trkpt>
      <trkpt lat="46.69023" lon="5.63943">
        <ele>396</ele>
        <time>2021-05-10T10:01:22+02:00</time>
      </trkpt>
      <trkpt lat="46.68971" lon="5.63946">
        <ele>412</ele>
        <time>2021-05-10T10:01:27+02:00</time>
      </trkpt>
      <trkpt lat="46.68931" lon="5.63887">
        <ele>409</ele>
        <time>2021-05-10T10:01:32+02:00</time>
      </trkpt>
      <trkpt lat="46.68919" lon="5.63824">
        <ele>423</ele>
        <time>2021-05-10T10:01:37+02:00</time>
      </trkpt>
      <trkpt lat="46.68954" lon="5.6375">
        <ele>474</ele>
        <time>2021-05-10T10:01:42+02:00</time>
      </trkpt>
      <trkpt lat="46.68915" lon="5.63766">
        <ele>467</ele>
        <time>2021-05-10T10:01:47+02:00</time>
      </trkpt>
      <trkpt lat="46.68888" lon="5.63784">
        <ele>469</ele>
        <time>2021-05-10T10:01:52+02:00</time>
      </trkpt>
      <trkpt lat="46.68869" lon="5.63815">
        <ele>467</ele>
        <time>2021-05-10T10:01:57+02:00</time>
      </trkpt>
      <trkpt lat="46.68861" lon="5.63909">
        <ele>464</ele>
        <time>2021-05-10T10:02:02+02:00</time>
      </trkpt>
      <trkpt lat="46.68872" lon="5.6396">
        <ele>467</ele>
        <time>2021-05-10T10:02:07+02:00</time>
      </trkpt>
      <trkpt lat="46.68896" lon="5.64003">
        <ele>472</ele>
        <time>2021-05-10T10:02:12+02:00</time>
      </trkpt>
      <trkpt lat="46.68907" lon="5.64024">
        <ele>479</ele>
        <time>2021-05-10T10:02:17+02:00</time>
      </trkpt>
      <trkpt lat="46.68896" lon="5.64052">
        <ele>495</ele>
        <time>2021-05-10T10:02:22+02:00</time>
      </trkpt>
      <trkpt lat="46.68892" lon="5.64057">
        <ele>498</ele>
        <time>2021-05-10T10:02:27+02:00</time>
      </trkpt>
      <trkpt lat="46.68873" lon="5.64042">
        <ele>494</ele>
        <time>2021-05-10T10:02:32+02:00</time>
      </trkpt>
      <trkpt lat="46.68868" lon="5.64056">
        <ele>500</ele>
        <time>2021-05-10T10:02:37+02:00</time>
      </trkpt>
      <trkpt lat="46.68856" lon="5.64059">
        <ele>501</ele>
        <time>2021-05-10T10:02:42+02:00</time>
      </trkpt>
      <trkpt lat="46.68826" lon="5.63986">
        <ele>496</ele>
        <time>2021-05-10T10:02:47+02:00</time>
      </trkpt>
      <trkpt lat="46.68796" lon="5.63985">
        <ele>498</ele>
        <time>2021-05-10T10:02:52+02:00</time>
      </trkpt>
      <trkpt lat="46.68791" lon="5.63986">
        <ele>499</ele>
        <time>2021-05-10T10:02:57+02:00</time>
      </trkpt>
      <trkpt lat="46.68829" lon="5.64195">
        <ele>506</ele>
        <time>2021-05-10T10:03:02+02:00</time>
      </trkpt>
      <trkpt lat="46.68828" lon="5.64227">
        <ele>505</ele>
        <time>2021-05-10T10:03:07+02:00</time>
      </trkpt>
      <trkpt lat="46.68861" lon="5.64249">
        <ele>509</ele>
        <time>2021-05-10T10:03:12+02:00</time>
      </trkpt>
      <trkpt lat="46.68879" lon="5.6429">
        <ele>511</ele>
        <time>2021-05-10T10:03:17+02:00</time>
      </trkpt>
      <trkpt lat="46.68893" lon="5.64377">
        <ele>511</ele>
        <time>2021-05-10T10:03:22+02:00</time>
      </trkpt>
      <trkpt lat="46.68897" lon="5.64388">
        <ele>511</ele>
        <time>2021-05-10T10:03:27+02:00</time>
      </trkpt>
      <trkpt lat="46.68916" lon="5.64406">
        <ele>512</ele>
        <time>2021-05-10T10:03:32+02:00</time>
      </trkpt>
      <trkpt lat="46.68958" lon="5.64416">
        <ele>516</ele>
        <time>2021-05-10T10:03:37+02:00</time>
      </trkpt>
      <trkpt lat="46.6899" lon="5.64439">
        <ele>517</ele>
        <time>2021-05-10T10:03:42+02:00</time>
      </trkpt>
      <trkpt lat="46.69026" lon="5.64532">
        <ele>517</ele>
        <time>2021-05-10T10:03:47+02:00</time>
      </trkpt>
      <trkpt lat="46.69049" lon="5.64563">
        <ele>517</ele>
        <time>2021-05-10T10:03:52+02:00</time>
      </trkpt>
      <trkpt lat="46.69072" lon="5.64586">
        <ele>518</ele>
        <time>2021-05-10T10:03:57+02:00</time>
      </trkpt>
      <trkpt lat="46.6909" lon="5.6463">
        <ele>517</ele>
        <time>2021-05-10T10:04:02+02:00</time>
      </trkpt>
      <trkpt lat="46.69096" lon="5.64691">
        <ele>516</ele>
        <time>2021-05-10T10:04:07+02:00</time>
      </trkpt>
      <trkpt lat="46.69118" lon="5.64738">
        <ele>516</ele>
        <time>2021-05-10T10:04:12+02:00</time>
      </trkpt>
      <trkpt lat="46.69183" lon="5.64802">
        <ele>516</ele>
        <time>2021-05-10T10:04:17+02:00</time>
      </trkpt>
      <trkpt lat="46.69243" lon="5.64878">
        <ele>515</ele>
        <time>2021-05-10T10:04:22+02:00</time>
      </trkpt>
      <trkpt lat="46.69287" lon="5.64889">
        <ele>513</ele>
        <time>2021-05-10T10:04:27+02:00</time>
      </trkpt>
      <trkpt lat="46.69311" lon="5.64917">
        <ele>512</ele>
        <time>2021-05-10T10:04:32+02:00</time>
      </trkpt>
      <trkpt lat="46.69352" lon="5.64977">
        <ele>512</ele>
        <time>2021-05-10T10:04:37+02:00</time>
      </trkpt>
      <trkpt lat="46.69416" lon="5.6502">
        <ele>513</ele>
        <time>2021-05-10T10:04:42+02:00</time>
      </trkpt>
      <trkpt lat="46.69528" lon="5.65156">
        <ele>511</ele>
        <time>2021-05-10T10:04:47+02:00</time>
      </trkpt>
      <trkpt lat="46.69569" lon="5.65314">
        <ele>505</ele>
        <time>2021-05-10T10:04:52+02:00</time>
      </trkpt>
      <trkpt lat="46.69548" lon="5.6543">
        <ele>502</ele>
        <time>2021-05-10T10:04:57+02:00</time>
      </trkpt>
      <trkpt lat="46.69565" lon="5.65535">
        <ele>498</ele>
        <time>2021-05-10T10:05:02+02:00</time>
      </trkpt>
      <trkpt lat="46.69545" lon="5.65615">
        <ele>499</ele>
        <time>2021-05-10T10:05:07+02:00</time>
      </trkpt>
      <trkpt lat="46.69544" lon="5.65904">
        <ele>503</ele>
        <time>2021-05-10T10:05:12+02:00</time>
      </trkpt>
      <trkpt lat="46.69588" lon="5.66013">
        <ele>509</ele>
        <time>2021-05-10T10:05:17+02:00</time>
      </trkpt>
      <trkpt lat="46.69669" lon="5.66052">
        <ele>512</ele>
        <time>2021-05-10T10:05:22+02:00</time>
      </trkpt>
      <trkpt lat="46.69733" lon="5.66143">
        <ele>513</ele>
        <time>2021-05-10T10:05:27+02:00</time>
      </trkpt>
      <trkpt lat="46.69874" lon="5.66114">
        <ele>512</ele>
        <time>2021-05-10T10:05:32+02:00</time>
      </trkpt>
      <trkpt lat="46.70012" lon="5.66129">
        <ele>516</ele>
        <time>2021-05-10T10:05:37+02:00</time>
      </trkpt>
      <trkpt lat="46.70111" lon="5.66158">
        <ele>514</ele>
        <time>2021-05-10T10:05:42+02:00</time>
      </trkpt>
      <trkpt lat="46.70179" lon="5.66192">
        <ele>514</ele>
        <time>2021-05-10T10:05:47+02:00</time>
      </trkpt>
      <trkpt lat="46.70272" lon="5.66178">
        <ele>514</ele>
        <time>2021-05-10T10:05:52+02:00</time>
      </trkpt>
      <trkpt lat="46.7035" lon="5.66185">
        <ele>513</ele>
        <time>2021-05-10T10:05:57+02:00</time>
      </trkpt>
      <trkpt lat="46.70417" lon="5.66173">
        <ele>508</ele>
        <time>2021-05-10T10:06:02+02:00</time>
      </trkpt>
      <trkpt lat="46.70469" lon="5.6614">
        <ele>506</ele>
        <time>2021-05-10T10:06:07+02:00</time>
      </trkpt>
      <trkpt lat="46.70422" lon="5.65962">
        <ele>518</ele>
        <time>2021-05-10T10:06:12+02:00</time>
      </trkpt>
      <trkpt lat="46.70432" lon="5.65844">
        <ele>516</ele>
        <time>2021-05-10T10:06:17+02:00</time>
      </trkpt>
      <trkpt lat="46.70464" lon="5.6579">
        <ele>512</ele>
        <time>2021-05-10T10:06:22+02:00</time>
      </trkpt>
      <trkpt lat="46.70467" lon="5.65759">
        <ele>511</ele>
        <time>2021-05-10T10:06:27+02:00</time>
      </trkpt>
      <trkpt lat="46.70514" lon="5.65701">
        <ele>506</ele>
        <time>2021-05-10T10:06:32+02:00</time>
      </trkpt>
      <trkpt lat="46.70483" lon="5.65658">
        <ele>509</ele>
        <time>2021-05-10T10:06:37+02:00</time>
      </trkpt>
      <trkpt lat="46.70439" lon="5.65234">
        <ele>464</ele>
        <time>2021-05-10T10:06:42+02:00</time>
      </trkpt>
      <trkpt lat="46.70457" lon="5.65277">
        <ele>484</ele>
        <time>2021-05-10T10:06:47+02:00</time>
      </trkpt>
      <trkpt lat="46.7047" lon="5.65441">
        <ele>507</ele>
        <time>2021-05-10T10:06:52+02:00</time>
      </trkpt>
      <trkpt lat="46.70474" lon="5.65519">
        <ele>509</ele>
        <time>2021-05-10T10:06:57+02:00</time>
      </trkpt>
      <trkpt lat="46.70497" lon="5.65655">
        <ele>508</ele>
        <time>2021-05-10T10:07:02+02:00</time>
      </trkpt>
      <trkpt lat="46.70613" lon="5.65817">
        <ele>501</ele>
        <time>2021-05-10T10:07:07+02:00</time>
      </trkpt>
      <trkpt lat="46.70647" lon="5.65912">
        <ele>499</ele>
        <time>2021-05-10T10:07:12+02:00</time>
      </trkpt>
      <trkpt lat="46.70666" lon="5.65893">
        <ele>496</ele>
        <time>2021-05-10T10:07:17+02:00</time>
      </trkpt>
      <trkpt lat="46.70687" lon="5.6589">
        <ele>493</ele>
        <time>2021-05-10T10:07:22+02:00</time>
      </trkpt>
      <trkpt lat="46.70697" lon="5.65869">
        <ele>489</ele>
        <time>2021-05-10T10:07:27+02:00</time>
      </trkpt>
      <trkpt lat="46.7072" lon="5.65876">
        <ele>486</ele>
        <time>2021-05-10T10:07:32+02:00</time>
      </trkpt>
      <trkpt lat="46.7082" lon="5.65833">
        <ele>467</ele>
        <time>2021-05-10T10:07:37+02:00</time>
      </trkpt>
      <trkpt lat="46.7085" lon="5.65786">
        <ele>455</ele>
        <time>2021-05-10T10:07:42+02:00</time>
      </trkpt>
      <trkpt lat="46.70873" lon="5.65688">
        <ele>440</ele>
        <time>2021-05-10T10:07:47+02:00</time>
      </trkpt>
      <trkpt lat="46.70878" lon="5.65613">
        <ele>432</ele>
        <time>2021-05-10T10:07:52+02:00</time>
      </trkpt>
      <trkpt lat="46.70833" lon="5.65456">
        <ele>394</ele>
        <time>2021-05-10T10:07:57+02:00</time>
      </trkpt>
      <trkpt lat="46.70836" lon="5.65408">
        <ele>399</ele>
        <time>2021-05-10T10:08:02+02:00</time>
      </trkpt>
      <trkpt lat="46.70832" lon="5.65364">
        <ele>398</ele>
        <time>2021-05-10T10:08:07+02:00</time>
      </trkpt>
      <trkpt lat="46.70794" lon="5.65246">
        <ele>379</ele>
        <time>2021-05-10T10:08:12+02:00</time>
      </trkpt>
      <trkpt lat="46.70789" lon="5.65189">
        <ele>371</ele>
        <time>2021-05-10T10:08:17+02:00</time>
      </trkpt>
      <trkpt lat="46.7081" lon="5.65145">
        <ele>376</ele>
        <time>2021-05-10T10:08:22+02:00</time>
      </trkpt>
      <trkpt lat="46.70822" lon="5.65092">
        <ele>370</ele>
        <time>2021-05-10T10:08:27+02:00</time>
      </trkpt>
      <trkpt lat="46.70838" lon="5.64961">
        <ele>349</ele>
        <time>2021-05-10T10:08:32+02:00</time>
      </trkpt>
      <trkpt lat="46.70821" lon="5.64928">
        <ele>338</ele>
        <time>2021-05-10T10:08:37+02:00</time>
      </trkpt>
      <trkpt lat="46.70796" lon="5.6493">
        <ele>332</ele>
        <time>2021-05-10T10:08:42+02:00</time>
      </trkpt>
      <trkpt lat="46.70752" lon="5.64905">
        <ele>318</ele>
        <time>2021-05-10T10:08:47+02:00</time>
      </trkpt>
      <trkpt lat="46.70715" lon="5.64874">
        <ele>313</ele>
        <time>2021-05-10T10:08:52+02:00</time>
      </trkpt>
      <trkpt lat="46.70712" lon="5.6486">
        <ele>312</ele>
        <time>2021-05-10T10:08:57+02:00</time>
      </trkpt>
      <trkpt lat="46.70715" lon="5.64831">
        <ele>311</ele>
        <time>2021-05-10T10:09:02+02:00</time>
      </trkpt>
      <trkpt lat="46.70766" lon="5.64806">
        <ele>311</ele>
        <time>2021-05-10T10:09:07+02:00</time>
      </trkpt>
    </trkseg>
  </trk>
</gpx>